Time;durP1;ratioP1;P1;durP2;ratioP2;P2;SDS_P1;SDS_P2;PMS_P1;PMS_P2;Temp;Humidity;BMP_temperature;BMP_pressure;BME280_temperature;BME280_humidity;BME280_pressure;Samples;Min_cycle;Max_cycle;Signal;HPM_P1;HPM_P2
2021/05/30 00:02:24;;;;;;;0.10;0.10;;;;;;;11.06;55.13;98575.13;128389;1104;22731;-80
2021/05/30 00:04:50;;;;;;;0.10;0.10;;;;;;;11.03;55.11;98573.03;127531;1099;115016;-81
2021/05/30 00:07:18;;;;;;;0.10;0.10;;;;;;;11.01;54.51;98569.86;127581;1104;114959;-81
2021/05/30 00:09:46;;;;;;;0.10;0.10;;;;;;;11.00;54.54;98572.84;127568;1104;115419;-81
2021/05/30 00:12:13;;;;;;;0.20;0.20;;;;;;;10.97;54.42;98579.66;127644;1104;115144;-81
2021/05/30 00:14:39;;;;;;;0.10;0.10;;;;;;;10.95;54.26;98581.85;128381;1104;22764;-81
2021/05/30 00:17:06;;;;;;;0.20;0.20;;;;;;;10.93;54.94;98577.89;127569;1104;115704;-80
2021/05/30 00:19:32;;;;;;;0.10;0.10;;;;;;;10.91;55.15;98574.70;127575;1104;114914;-81
2021/05/30 00:21:57;;;;;;;0.20;0.20;;;;;;;10.88;55.13;98570.70;127615;1104;115298;-82
2021/05/30 00:24:23;;;;;;;0.10;0.10;;;;;;;10.84;55.68;98577.80;127588;1104;115561;-81
2021/05/30 00:26:49;;;;;;;0.10;0.10;;;;;;;10.80;55.33;98580.31;127572;1104;115088;-81
2021/05/30 00:29:15;;;;;;;0.10;0.10;;;;;;;10.76;55.29;98573.94;128364;1104;22807;-82
2021/05/30 00:31:41;;;;;;;0.10;0.10;;;;;;;10.74;54.81;98572.67;127552;1104;115834;-80
2021/05/30 00:34:07;;;;;;;0.10;0.10;;;;;;;10.70;55.45;98571.70;127555;1104;115292;-81
2021/05/30 00:36:33;;;;;;;0.10;0.10;;;;;;;10.67;55.41;98569.61;127622;1104;115328;-81
2021/05/30 00:39:00;;;;;;;0.10;0.10;;;;;;;10.63;55.38;98574.80;127552;1104;115396;-81
2021/05/30 00:41:27;;;;;;;0.10;0.10;;;;;;;10.62;55.54;98572.42;128431;1104;22762;-81
2021/05/30 00:43:54;;;;;;;0.15;0.15;;;;;;;10.60;55.69;98572.70;127581;1103;115668;-81
2021/05/30 00:46:21;;;;;;;0.10;0.10;;;;;;;10.58;56.44;98572.23;127582;1104;116256;-81
2021/05/30 00:48:49;;;;;;;0.10;0.10;;;;;;;10.55;56.42;98568.24;127609;1104;115242;-80
2021/05/30 00:51:16;;;;;;;0.10;0.10;;;;;;;10.54;56.03;98563.97;127630;1104;116111;-80
2021/05/30 00:53:44;;;;;;;0.13;0.13;;;;;;;10.51;56.40;98558.39;128437;1104;22763;-80
2021/05/30 00:56:14;;;;;;;0.10;0.10;;;;;;;10.49;56.36;98557.88;128313;1104;113596;-80
2021/05/30 00:58:41;;;;;;;0.10;0.10;;;;;;;10.47;56.81;98554.71;127587;1104;116264;-80
2021/05/30 01:01:08;;;;;;;0.10;0.10;;;;;;;10.43;56.70;98551.03;127589;1104;115811;-80
2021/05/30 01:03:35;;;;;;;0.10;0.10;;;;;;;10.41;56.34;98551.32;127597;1104;115165;-81
2021/05/30 01:06:03;;;;;;;0.10;0.10;;;;;;;10.39;56.30;98550.84;127673;1100;115601;-80
2021/05/30 01:08:30;;;;;;;0.10;0.10;;;;;;;10.37;56.58;98558.41;128382;1104;23472;-80
2021/05/30 01:10:59;;;;;;;0.10;0.10;;;;;;;10.36;56.77;98567.59;127586;1104;114607;-80
2021/05/30 01:13:26;;;;;;;0.10;0.10;;;;;;;10.32;57.17;98578.16;127594;1104;114921;-81
2021/05/30 01:15:53;;;;;;;0.10;0.10;;;;;;;10.28;57.52;98579.08;127630;1104;116152;-80
2021/05/30 01:18:24;;;;;;;0.10;0.10;;;;;;;10.24;57.35;98576.16;127595;1104;115648;-80
2021/05/30 01:20:53;;;;;;;0.10;0.10;;;;;;;10.21;57.64;98578.66;127568;1104;115609;-81
2021/05/30 01:23:20;;;;;;;0.10;0.10;;;;;;;10.17;57.00;98572.28;128416;1104;22739;-81
2021/05/30 01:25:47;;;;;;;0.10;0.10;;;;;;;10.12;57.67;98565.12;127641;1104;114832;-81
2021/05/30 01:28:18;;;;;;;0.10;0.10;;;;;;;10.07;58.63;98570.61;127675;1104;115742;-81
2021/05/30 01:30:46;;;;;;;0.10;0.10;;;;;;;10.02;58.01;98571.52;127669;1097;115875;-81
2021/05/30 01:33:12;;;;;;;0.10;0.10;;;;;;;9.97;58.40;98568.91;127596;1104;115129;-80
2021/05/30 01:35:38;;;;;;;0.10;0.10;;;;;;;9.91;58.42;98574.71;128416;1098;22946;-80
2021/05/30 01:38:04;;;;;;;0.10;0.10;;;;;;;9.88;58.34;98569.92;127601;1104;114591;-80
2021/05/30 01:40:30;;;;;;;0.10;0.10;;;;;;;9.88;58.99;98570.72;127584;1104;115028;-80
2021/05/30 01:42:57;;;;;;;0.10;0.10;;;;;;;9.89;60.21;98571.52;127574;1104;115498;-80
2021/05/30 01:45:28;;;;;;;0.20;0.20;;;;;;;9.93;59.75;98567.13;127632;1104;115636;-80
2021/05/30 01:47:54;;;;;;;0.10;0.10;;;;;;;9.93;60.31;98564.44;127609;1104;115028;-80
2021/05/30 01:50:23;;;;;;;0.10;0.10;;;;;;;9.91;60.20;98564.75;128392;1104;22753;-80
2021/05/30 01:52:50;;;;;;;0.10;0.10;;;;;;;9.92;59.93;98554.78;127630;1097;115766;-80
2021/05/30 01:56:55;;;;;;;0.10;0.10;;;;;;;9.90;59.48;98555.06;127644;1097;115954;-80
2021/05/30 01:58:04;;;;;;;0.10;0.10;;;;;;;9.89;59.93;98545.41;127585;1105;115734;-81
2021/05/30 02:00:30;;;;;;;0.08;0.08;;;;;;;9.87;59.58;98547.62;127640;1097;115477;-81
2021/05/30 02:02:58;;;;;;;0.10;0.10;;;;;;;9.85;59.86;98555.17;127562;1103;115035;-81
2021/05/30 02:05:24;;;;;;;0.10;0.10;;;;;;;9.81;59.98;98554.97;128397;1104;22735;-81
2021/05/30 02:07:51;;;;;;;0.10;0.10;;;;;;;9.79;60.02;98551.80;127612;1104;114489;-81
2021/05/30 02:10:19;;;;;;;0.10;0.10;;;;;;;9.77;59.72;98550.50;127650;1104;114882;-81
2021/05/30 02:12:48;;;;;;;0.10;0.10;;;;;;;9.76;59.65;98551.60;127674;1097;115907;-81
2021/05/30 02:15:16;;;;;;;0.08;0.08;;;;;;;9.73;60.09;98552.98;127593;1104;115868;-81
2021/05/30 02:17:43;;;;;;;0.10;0.10;;;;;;;9.71;59.86;98559.77;128373;1104;22779;-81
2021/05/30 02:20:11;;;;;;;0.10;0.10;;;;;;;9.67;60.15;98556.06;127622;1104;115127;-80
2021/05/30 02:22:38;;;;;;;0.10;0.10;;;;;;;9.64;59.70;98557.47;127603;1104;115723;-81
2021/05/30 02:25:06;;;;;;;0.10;0.10;;;;;;;9.61;60.18;98558.06;127661;1099;116004;-81
2021/05/30 02:27:32;;;;;;;0.10;0.10;;;;;;;9.58;60.00;98567.52;127640;1104;115157;-81
2021/05/30 02:29:58;;;;;;;0.00;0.00;;;;;;;9.54;60.06;98561.14;127545;1104;114992;-81
2021/05/30 02:32:24;;;;;;;0.10;0.10;;;;;;;9.51;60.76;98563.62;128382;1104;22738;-81
2021/05/30 02:34:50;;;;;;;0.10;0.10;;;;;;;9.47;60.32;98566.13;127634;1104;115383;-80
2021/05/30 02:37:17;;;;;;;0.07;0.07;;;;;;;9.44;60.77;98564.03;127588;1104;115449;-80
2021/05/30 02:39:45;;;;;;;0.00;0.00;;;;;;;9.40;61.20;98565.72;127676;1104;114994;-80
2021/05/30 02:42:12;;;;;;;0.10;0.10;;;;;;;9.35;61.10;98565.78;127573;1104;115845;-81
2021/05/30 02:44:39;;;;;;;0.10;0.10;;;;;;;9.32;61.22;98566.41;128432;1104;22840;-81
2021/05/30 02:47:05;;;;;;;0.10;0.10;;;;;;;9.31;61.15;98562.09;127575;1104;114788;-81
2021/05/30 02:49:33;;;;;;;0.10;0.10;;;;;;;9.35;61.71;98563.10;127582;1104;115415;-82
2021/05/30 02:52:03;;;;;;;0.10;0.10;;;;;;;9.41;62.24;98561.14;127586;1104;116073;-81
2021/05/30 02:54:29;;;;;;;0.10;0.10;;;;;;;9.49;62.53;98566.62;127608;1104;115655;-81
2021/05/30 02:56:55;;;;;;;0.10;0.10;;;;;;;9.58;62.09;98567.52;127602;1099;115339;-80
2021/05/30 02:59:21;;;;;;;0.10;0.10;;;;;;;9.67;62.06;98572.19;128418;1104;22780;-81
2021/05/30 03:01:47;;;;;;;0.08;0.08;;;;;;;9.73;61.47;98563.74;127632;1104;115062;-81
2021/05/30 03:04:13;;;;;;;0.10;0.10;;;;;;;9.79;61.53;98578.70;127582;1097;115999;-80
2021/05/30 03:06:39;;;;;;;0.00;0.00;;;;;;;9.82;61.58;98571.91;127605;1099;115245;-81
2021/05/30 03:09:05;;;;;;;0.10;0.10;;;;;;;9.86;60.77;98570.20;127643;1104;115273;-80
2021/05/30 03:11:31;;;;;;;0.10;0.10;;;;;;;9.88;62.04;98576.09;128448;1104;22747;-81
2021/05/30 03:13:57;;;;;;;0.10;0.10;;;;;;;9.89;61.00;98568.82;127591;1099;114331;-81
2021/05/30 03:16:24;;;;;;;0.10;0.10;;;;;;;9.90;61.45;98571.20;127542;1104;115819;-81
2021/05/30 03:18:50;;;;;;;0.10;0.10;;;;;;;9.92;61.38;98568.23;127606;1104;115613;-81
2021/05/30 03:21:17;;;;;;;0.10;0.10;;;;;;;9.93;61.29;98565.23;127522;1104;115699;-81
2021/05/30 03:23:44;;;;;;;0.10;0.10;;;;;;;9.94;61.86;98577.60;128329;1104;22769;-81
2021/05/30 03:26:10;;;;;;;0.10;0.10;;;;;;;9.95;62.13;98575.70;128251;1104;113153;-80
2021/05/30 03:28:37;;;;;;;0.10;0.10;;;;;;;9.92;61.28;98577.09;127636;1104;115110;-80
2021/05/30 03:31:06;;;;;;;0.10;0.10;;;;;;;9.93;60.75;98575.20;127656;1104;115095;-80
2021/05/30 03:33:32;;;;;;;0.10;0.10;;;;;;;9.91;61.38;98580.88;127620;1104;114776;-81
2021/05/30 03:36:01;;;;;;;0.10;0.10;;;;;;;9.91;60.79;98572.02;127581;1103;115403;-80
2021/05/30 03:38:31;;;;;;;0.00;0.00;;;;;;;9.91;61.22;98577.41;128532;1104;22763;-81
2021/05/30 03:43:26;;;;;;;0.10;0.10;;;;;;;9.86;61.02;98580.17;127646;1104;115076;-81
2021/05/30 03:45:52;;;;;;;0.10;0.10;;;;;;;9.82;61.71;98578.10;127600;1104;115132;-81
2021/05/30 03:48:18;;;;;;;0.10;0.10;;;;;;;9.81;62.02;98576.48;127592;1104;114744;-81
2021/05/30 03:50:49;;;;;;;0.10;0.10;;;;;;;9.79;62.12;98572.52;128394;1104;22795;-81
2021/05/30 03:53:17;;;;;;;0.10;0.10;;;;;;;9.77;62.53;98580.87;128467;1104;22756;-81
2021/05/30 03:55:44;;;;;;;0.00;0.00;;;;;;;9.76;62.05;98573.91;127645;1104;114939;-81
2021/05/30 03:58:11;;;;;;;0.10;0.10;;;;;;;9.80;62.61;98577.59;127541;1097;115315;-81
2021/05/30 04:00:37;;;;;;;0.10;0.10;;;;;;;9.85;62.70;98582.06;127547;1097;114789;-80
2021/05/30 04:03:04;;;;;;;0.20;0.20;;;;;;;9.93;63.08;98575.20;127572;1104;115832;-80
2021/05/30 04:05:30;;;;;;;0.33;0.20;;;;;;;9.98;62.65;98577.77;128399;1104;22874;-81
2021/05/30 04:07:56;;;;;;;0.10;0.10;;;;;;;10.05;62.29;98580.86;127566;1104;115013;-81
2021/05/30 04:10:22;;;;;;;0.10;0.10;;;;;;;10.06;62.79;98588.65;127562;1104;115933;-81
2021/05/30 04:12:48;;;;;;;0.10;0.10;;;;;;;10.07;61.81;98581.38;127475;1104;115869;-80
2021/05/30 04:15:15;;;;;;;0.10;0.10;;;;;;;10.12;62.10;98591.23;127596;1104;115644;-81
2021/05/30 04:17:43;;;;;;;0.10;0.10;;;;;;;10.17;62.26;98585.73;128486;1104;22742;-80
2021/05/30 04:20:12;;;;;;;0.10;0.10;;;;;;;10.21;61.80;98592.11;127670;1104;114863;-80
2021/05/30 04:22:40;;;;;;;0.10;0.10;;;;;;;10.27;61.32;98588.25;127578;1104;115354;-80
2021/05/30 04:25:08;;;;;;;0.10;0.10;;;;;;;10.32;61.00;98585.45;127597;1104;115327;-81
2021/05/30 04:27:37;;;;;;;0.10;0.10;;;;;;;10.36;61.25;98583.74;127648;1104;115810;-79
2021/05/30 04:30:08;;;;;;;0.10;0.10;;;;;;;10.42;60.81;98587.92;127630;1104;114864;-82
2021/05/30 04:32:35;;;;;;;0.10;0.10;;;;;;;10.49;60.65;98579.42;128407;1104;22839;-82
2021/05/30 04:35:03;;;;;;;0.10;0.10;;;;;;;10.55;60.53;98576.31;127611;1104;114507;-82
2021/05/30 04:37:29;;;;;;;0.10;0.10;;;;;;;10.63;60.78;98580.19;127681;1104;114964;-79
2021/05/30 04:39:55;;;;;;;0.10;0.10;;;;;;;10.70;60.73;98577.08;127634;1104;115359;-82
2021/05/30 04:42:21;;;;;;;0.10;0.10;;;;;;;10.75;60.64;98575.05;127551;1099;116159;-82
2021/05/30 04:44:48;;;;;;;0.10;0.10;;;;;;;10.82;60.32;98577.33;127555;1104;115358;-82
2021/05/30 04:47:14;;;;;;;0.10;0.10;;;;;;;10.89;60.54;98574.22;128387;1104;22825;-82
2021/05/30 04:49:41;;;;;;;0.10;0.10;;;;;;;10.95;60.39;98578.37;127576;1104;115452;-82
2021/05/30 04:52:09;;;;;;;0.10;0.10;;;;;;;11.01;59.97;98579.84;127595;1104;115850;-82
2021/05/30 04:54:35;;;;;;;0.10;0.10;;;;;;;11.06;60.40;98577.81;127620;1099;115727;-81
2021/05/30 04:57:02;;;;;;;0.10;0.10;;;;;;;11.10;60.21;98582.59;127565;1104;115433;-81
2021/05/30 04:59:30;;;;;;;0.10;0.10;;;;;;;11.14;60.75;98565.50;128409;1104;22802;-81
2021/05/30 05:01:56;;;;;;;0.10;0.10;;;;;;;11.17;60.42;98570.28;127599;1104;114987;-81
2021/05/30 05:04:22;;;;;;;0.10;0.10;;;;;;;11.22;60.71;98572.05;127567;1100;115645;-81
2021/05/30 05:06:48;;;;;;;0.10;0.10;;;;;;;11.25;60.37;98566.05;127587;1104;114986;-81
2021/05/30 05:09:15;;;;;;;0.10;0.10;;;;;;;11.29;59.89;98569.72;127566;1100;115921;-80
2021/05/30 05:11:42;;;;;;;0.13;0.13;;;;;;;11.34;60.40;98571.48;128401;1104;22798;-80
2021/05/30 05:14:08;;;;;;;0.10;0.10;;;;;;;11.38;59.78;98565.16;127627;1104;115079;-81
2021/05/30 05:16:34;;;;;;;0.10;0.10;;;;;;;11.43;59.35;98572.31;127580;1104;114754;-81
2021/05/30 05:19:02;;;;;;;0.18;0.18;;;;;;;11.48;59.46;98569.50;127584;1099;115651;-81
2021/05/30 05:21:28;;;;;;;0.10;0.10;;;;;;;11.52;59.72;98565.08;127663;1104;116046;-81
2021/05/30 05:23:55;;;;;;;0.10;0.10;;;;;;;11.60;60.46;98558.92;127663;1104;117594;-81
2021/05/30 05:26:22;;;;;;;0.20;0.20;;;;;;;11.69;60.28;98559.75;128424;1104;22807;-80
2021/05/30 05:28:49;;;;;;;0.10;0.10;;;;;;;11.81;60.61;98567.25;127572;1104;114955;-81
2021/05/30 05:31:15;;;;;;;0.20;0.20;;;;;;;11.91;59.97;98566.22;127620;1104;114973;-81
2021/05/30 05:33:43;;;;;;;0.10;0.10;;;;;;;12.01;59.46;98555.11;127565;1098;115812;-80
2021/05/30 05:36:09;;;;;;;0.10;0.10;;;;;;;12.10;59.35;98566.72;127622;1099;116239;-80
2021/05/30 05:38:36;;;;;;;0.10;0.10;;;;;;;12.20;59.07;98571.03;128370;1104;22739;-81
2021/05/30 05:41:03;;;;;;;0.10;0.10;;;;;;;12.30;58.56;98570.75;127573;1104;115057;-80
2021/05/30 05:43:29;;;;;;;0.10;0.10;;;;;;;12.40;58.76;98567.73;127661;1097;115355;-80
2021/05/30 05:45:55;;;;;;;0.20;0.20;;;;;;;12.46;57.39;98569.17;127593;1104;115740;-81
2021/05/30 05:48:21;;;;;;;0.10;0.10;;;;;;;12.51;57.90;98569.02;127570;1104;115197;-80
2021/05/30 05:50:48;;;;;;;0.10;0.10;;;;;;;12.55;57.26;98571.09;127533;1100;115435;-80
2021/05/30 05:53:15;;;;;;;0.10;0.10;;;;;;;12.58;57.21;98573.16;128454;1104;22750;-81
2021/05/30 05:55:42;;;;;;;0.10;0.10;;;;;;;12.57;57.12;98580.44;127547;1098;114815;-81
2021/05/30 05:58:08;;;;;;;0.10;0.10;;;;;;;12.57;57.36;98577.73;127657;1104;115276;-81
2021/05/30 06:00:35;;;;;;;0.10;0.10;;;;;;;12.60;56.93;98584.43;127560;1104;115112;-81
2021/05/30 06:03:02;;;;;;;0.10;0.10;;;;;;;12.61;56.87;98577.91;127576;1104;115938;-81
2021/05/30 06:05:28;;;;;;;0.28;0.28;;;;;;;12.65;57.20;98574.25;128328;1104;22805;-80
2021/05/30 06:07:56;;;;;;;0.15;0.15;;;;;;;12.70;56.61;98579.52;127540;1104;115602;-80
2021/05/30 06:10:25;;;;;;;0.10;0.10;;;;;;;12.78;56.77;98586.82;127562;1099;115170;-80
2021/05/30 06:12:53;;;;;;;0.18;0.18;;;;;;;12.86;56.98;98579.03;127540;1104;115735;-80
2021/05/30 06:15:20;;;;;;;0.18;0.18;;;;;;;12.93;56.55;98580.14;127588;1104;115116;-80
2021/05/30 06:17:54;;;;;;;0.10;0.10;;;;;;;13.03;56.03;98582.50;127604;1104;115637;-80
2021/05/30 06:20:26;;;;;;;0.10;0.10;;;;;;;13.12;56.06;98585.19;128391;1100;22814;-79
2021/05/30 06:22:55;;;;;;;0.10;0.10;;;;;;;13.22;55.79;98586.78;127583;1104;115424;-80
2021/05/30 06:25:25;;;;;;;0.18;0.18;;;;;;;13.26;55.89;98591.25;127569;1099;115083;-80
2021/05/30 06:27:52;;;;;;;0.10;0.10;;;;;;;13.37;56.30;98588.22;127538;1104;115307;-80
2021/05/30 06:30:18;;;;;;;0.20;0.20;;;;;;;13.54;56.02;98587.36;127559;1104;115888;-81
2021/05/30 06:32:44;;;;;;;0.18;0.18;;;;;;;13.71;55.76;98598.91;128345;1098;22790;-80
2021/05/30 06:35:10;;;;;;;0.10;0.10;;;;;;;13.82;55.72;98590.44;128359;1104;22934;-80
2021/05/30 06:37:37;;;;;;;0.30;0.30;;;;;;;13.91;55.26;98591.19;127613;1104;114800;-80
2021/05/30 06:40:05;;;;;;;0.20;0.20;;;;;;;14.03;55.66;98591.31;127483;1104;115222;-81
2021/05/30 06:42:31;;;;;;;0.20;0.20;;;;;;;14.17;55.24;98596.48;127421;1104;115017;-80
2021/05/30 06:44:57;;;;;;;0.20;0.20;;;;;;;14.24;54.84;98594.06;127509;1104;115318;-80
2021/05/30 06:47:23;;;;;;;0.10;0.10;;;;;;;14.37;54.38;98595.72;128340;1104;22801;-80
2021/05/30 06:49:50;;;;;;;0.20;0.20;;;;;;;14.45;54.58;98597.58;127513;1104;114902;-81
2021/05/30 06:52:16;;;;;;;0.20;0.20;;;;;;;14.53;54.46;98598.67;127494;1104;115018;-80
2021/05/30 06:54:42;;;;;;;0.20;0.20;;;;;;;14.69;53.91;98591.53;127570;1104;115717;-81
2021/05/30 06:57:09;;;;;;;0.30;0.30;;;;;;;14.89;53.68;98605.41;127593;1104;115655;-81
2021/05/30 06:59:35;;;;;;;0.10;0.10;;;;;;;14.98;53.17;98598.81;128432;1104;22770;-82
2021/05/30 07:02:01;;;;;;;0.20;0.20;;;;;;;15.09;53.43;98592.95;127548;1096;114797;-82
2021/05/30 07:04:28;;;;;;;0.20;0.20;;;;;;;15.18;53.49;98599.11;127451;1104;115705;-81
2021/05/30 07:06:54;;;;;;;0.30;0.30;;;;;;;15.34;53.07;98591.92;127607;1104;114824;-81
2021/05/30 07:09:22;;;;;;;0.20;0.20;;;;;;;15.40;52.89;98590.56;127615;1104;115491;-80
2021/05/30 07:11:49;;;;;;;0.20;0.20;;;;;;;15.43;52.55;98599.97;127343;1104;115881;-80
2021/05/30 07:14:15;;;;;;;0.30;0.30;;;;;;;15.40;52.50;98587.85;128194;1104;22736;-80
2021/05/30 07:16:42;;;;;;;0.20;0.20;;;;;;;15.33;52.05;98587.63;127409;1104;114586;-80
2021/05/30 07:19:08;;;;;;;0.20;0.20;;;;;;;15.33;51.90;98581.42;127423;1104;115073;-80
2021/05/30 07:21:34;;;;;;;0.23;0.23;;;;;;;15.33;52.04;98584.92;127323;1104;115246;-81
2021/05/30 07:24:00;;;;;;;0.20;0.20;;;;;;;15.37;51.92;98583.13;127495;1104;115743;-80
2021/05/30 07:26:26;;;;;;;0.20;0.20;;;;;;;15.40;51.62;98584.35;128199;1101;22779;-80
2021/05/30 07:28:53;;;;;;;0.10;0.10;;;;;;;15.42;51.68;98582.89;127663;1101;115070;-80
2021/05/30 07:31:19;;;;;;;0.20;0.20;;;;;;;15.53;51.37;98580.55;127657;1101;115837;-79
2021/05/30 07:33:46;;;;;;;0.20;0.20;;;;;;;15.65;50.93;98568.95;127531;1103;116437;-80
2021/05/30 07:36:13;;;;;;;0.40;0.40;;;;;;;15.72;51.06;98580.05;128121;1104;115686;-80
2021/05/30 07:38:39;;;;;;;0.15;0.15;;;;;;;15.77;50.56;98587.18;128396;1104;22729;-80
2021/05/30 07:41:05;;;;;;;0.20;0.20;;;;;;;15.81;49.92;98586.16;127529;1104;115667;-79
2021/05/30 07:43:31;;;;;;;0.20;0.20;;;;;;;15.86;49.82;98579.70;128047;1104;114813;-80
2021/05/30 07:45:57;;;;;;;0.20;0.20;;;;;;;15.91;49.36;98582.19;127543;1104;115268;-79
2021/05/30 07:48:23;;;;;;;0.20;0.20;;;;;;;15.94;49.62;98585.02;127626;1104;115948;-79
2021/05/30 07:50:49;;;;;;;0.30;0.30;;;;;;;16.02;49.59;98587.97;127653;1104;116022;-80
2021/05/30 07:53:15;;;;;;;0.20;0.20;;;;;;;16.09;49.76;98580.84;128497;1104;22729;-80
2021/05/30 07:55:44;;;;;;;0.20;0.20;;;;;;;16.13;49.55;98589.11;127698;1104;114862;-80
2021/05/30 07:58:10;;;;;;;0.20;0.20;;;;;;;16.19;48.59;98588.55;127664;1104;115581;-80
2021/05/30 08:00:37;;;;;;;0.30;0.30;;;;;;;16.25;48.80;98586.38;127608;1104;116431;-79
2021/05/30 08:03:03;;;;;;;0.20;0.20;;;;;;;16.28;48.08;98591.13;127658;1102;115040;-79
2021/05/30 08:05:29;;;;;;;0.20;0.20;;;;;;;16.35;48.34;98588.64;128479;1104;22727;-81
2021/05/30 08:07:56;;;;;;;0.20;0.20;;;;;;;16.46;48.25;98591.66;127680;1104;114579;-79
2021/05/30 08:10:25;;;;;;;0.20;0.20;;;;;;;16.55;47.76;98580.68;127660;1104;116287;-80
2021/05/30 08:12:53;;;;;;;0.20;0.20;;;;;;;16.65;47.46;98589.13;127499;1104;115007;-80
2021/05/30 08:15:19;;;;;;;0.20;0.20;;;;;;;16.83;47.71;98591.62;127491;1104;115540;-81
2021/05/30 08:17:46;;;;;;;0.20;0.20;;;;;;;16.96;47.42;98584.98;128162;1104;115548;-81
2021/05/30 08:20:14;;;;;;;0.30;0.30;;;;;;;17.22;47.45;98589.20;128269;1104;119127;-81
2021/05/30 08:22:40;;;;;;;0.20;0.20;;;;;;;17.47;47.17;98590.63;127663;1104;115624;-80
2021/05/30 08:25:07;;;;;;;0.20;0.20;;;;;;;17.63;46.82;98587.92;127672;1104;115614;-80
2021/05/30 08:27:34;;;;;;;0.30;0.30;;;;;;;17.81;46.95;98593.86;127668;1104;115383;-80
2021/05/30 08:30:00;;;;;;;0.20;0.20;;;;;;;17.92;45.87;98592.20;127708;1101;115274;-81
2021/05/30 08:32:27;;;;;;;0.30;0.30;;;;;;;18.02;46.23;98596.30;128437;1104;22756;-80
2021/05/30 08:34:53;;;;;;;0.20;0.20;;;;;;;18.01;44.91;98595.52;127639;1097;115063;-79
2021/05/30 08:37:19;;;;;;;0.30;0.30;;;;;;;17.97;45.13;98605.55;127672;1104;115191;-80
2021/05/30 08:39:47;;;;;;;0.30;0.30;;;;;;;18.15;44.81;98608.67;127629;1104;115154;-80
2021/05/30 08:42:18;;;;;;;0.23;0.23;;;;;;;18.25;45.19;98593.73;127629;1104;115154;-80
2021/05/30 08:44:44;;;;;;;0.30;0.30;;;;;;;18.22;44.40;98600.67;128407;1104;22829;-79
2021/05/30 08:47:11;;;;;;;0.35;0.30;;;;;;;18.23;44.46;98601.45;128406;1104;22737;-80
2021/05/30 08:49:37;;;;;;;0.20;0.20;;;;;;;18.29;44.07;98597.33;127606;1104;115212;-79
2021/05/30 08:52:03;;;;;;;0.30;0.30;;;;;;;18.37;44.18;98604.52;127537;1097;115387;-79
2021/05/30 08:54:31;;;;;;;0.33;0.33;;;;;;;18.43;44.16;98603.11;127568;1105;115508;-80
2021/05/30 08:56:57;;;;;;;0.23;0.23;;;;;;;18.55;43.89;98602.98;127578;1104;115313;-80
2021/05/30 08:59:29;;;;;;;0.20;0.20;;;;;;;18.65;43.42;98601.63;128367;1104;22737;-80
2021/05/30 09:01:57;;;;;;;0.30;0.30;;;;;;;18.76;43.66;98599.16;127602;1103;115833;-80
2021/05/30 09:04:35;;;;;;;0.30;0.30;;;;;;;18.96;43.08;98597.23;127491;1104;115127;-80
2021/05/30 09:07:03;;;;;;;0.30;0.30;;;;;;;19.01;43.28;98596.94;127606;1104;115538;-80
2021/05/30 09:09:40;;;;;;;0.20;0.20;;;;;;;19.13;43.13;98592.11;127526;1104;115971;-80
2021/05/30 09:12:19;;;;;;;0.30;0.30;;;;;;;19.11;42.26;98602.61;127533;1104;115833;-81
2021/05/30 09:14:51;;;;;;;0.30;0.30;;;;;;;19.10;42.21;98600.26;127809;1097;115846;-80
2021/05/30 09:17:18;;;;;;;0.30;0.30;;;;;;;19.03;42.55;98592.71;128128;1103;120003;-80
2021/05/30 09:19:50;;;;;;;0.20;0.20;;;;;;;19.01;42.61;98595.00;127626;1097;116029;-80
2021/05/30 09:22:26;;;;;;;0.23;0.23;;;;;;;19.03;42.32;98600.90;127611;1104;115441;-80
2021/05/30 09:25:04;;;;;;;0.30;0.30;;;;;;;19.01;42.05;98602.39;127624;1103;115430;-80
2021/05/30 09:27:31;;;;;;;0.30;0.30;;;;;;;18.93;41.81;98595.22;127628;1104;115001;-80
2021/05/30 09:30:14;;;;;;;0.23;0.23;;;;;;;18.90;42.29;98591.26;127612;1097;115635;-80
2021/05/30 09:33:05;;;;;;;0.23;0.23;;;;;;;18.91;41.70;98598.31;128349;1104;22753;-80
2021/05/30 09:36:00;;;;;;;0.30;0.30;;;;;;;18.94;42.07;98594.06;128454;1104;22744;-81
2021/05/30 09:38:30;;;;;;;0.40;0.40;;;;;;;19.07;41.82;98585.38;128478;1104;23015;-81
2021/05/30 09:41:03;;;;;;;0.30;0.30;;;;;;;19.31;42.26;98583.48;127620;1104;114893;-81
2021/05/30 09:43:50;;;;;;;0.30;0.30;;;;;;;19.58;41.81;98576.17;127634;1104;115282;-80
2021/05/30 09:46:22;;;;;;;0.40;0.40;;;;;;;19.92;41.75;98576.35;127601;1104;114779;-79
2021/05/30 09:49:00;;;;;;;0.35;0.35;;;;;;;20.22;40.82;98579.17;127573;1104;115963;-79
2021/05/30 09:51:39;;;;;;;0.30;0.30;;;;;;;20.39;39.46;98569.64;127754;1104;115661;-80
2021/05/30 09:54:14;;;;;;;0.30;0.30;;;;;;;20.43;39.49;98573.20;127720;1104;115744;-80
2021/05/30 09:56:43;;;;;;;0.30;0.30;;;;;;;20.43;39.22;98573.99;128484;1104;22820;-80
2021/05/30 09:59:26;;;;;;;0.40;0.40;;;;;;;20.42;38.51;98575.16;127645;1104;115173;-80
2021/05/30 10:02:00;;;;;;;0.30;0.30;;;;;;;20.37;37.54;98570.02;127653;1104;115392;-80
2021/05/30 10:04:34;;;;;;;0.38;0.38;;;;;;;20.26;37.99;98580.80;127584;1104;115313;-80
2021/05/30 10:07:04;;;;;;;0.30;0.30;;;;;;;20.24;38.34;98568.64;127501;1104;115590;-80
2021/05/30 10:09:32;;;;;;;0.50;0.50;;;;;;;20.35;38.53;98567.63;127614;1104;115661;-80
2021/05/30 10:11:59;;;;;;;0.30;0.30;;;;;;;20.57;38.23;98579.70;127706;1104;114823;-80
2021/05/30 10:14:27;;;;;;;0.40;0.40;;;;;;;20.70;38.33;98579.46;128421;1098;27086;-80
2021/05/30 10:16:54;;;;;;;0.40;0.40;;;;;;;20.98;38.07;98577.06;127553;1104;115081;-80
2021/05/30 10:19:44;;;;;;;0.30;0.30;;;;;;;21.23;37.30;98568.37;127414;1100;115421;-79
2021/05/30 10:22:11;;;;;;;0.40;0.40;;;;;;;21.19;37.53;98581.23;127355;1104;114770;-80
2021/05/30 10:24:43;;;;;;;0.40;0.40;;;;;;;21.32;36.66;98571.58;127437;1104;116044;-80
2021/05/30 10:27:15;;;;;;;0.40;0.40;;;;;;;21.38;36.49;98575.59;127368;1104;115550;-80
2021/05/30 10:30:01;;;;;;;0.38;0.38;;;;;;;21.38;35.36;98564.64;128194;1104;22854;-81
2021/05/30 10:32:27;;;;;;;0.30;0.30;;;;;;;21.56;34.31;98556.58;128296;1097;26155;-80
2021/05/30 10:35:16;;;;;;;0.30;0.30;;;;;;;21.70;34.95;98564.93;127412;1104;115329;-80
2021/05/30 10:37:46;;;;;;;0.30;0.30;;;;;;;21.56;34.04;98564.80;127439;1104;115338;-80
2021/05/30 10:40:43;;;;;;;0.40;0.40;;;;;;;21.45;34.57;98559.20;127326;1104;114773;-80
2021/05/30 10:43:14;;;;;;;0.30;0.30;;;;;;;21.49;35.55;98567.47;127420;1099;115848;-80
2021/05/30 10:45:51;;;;;;;0.40;0.40;;;;;;;21.55;35.21;98561.27;127476;1104;115207;-80
2021/05/30 10:48:19;;;;;;;0.30;0.30;;;;;;;21.60;35.30;98562.88;127401;1104;116121;-81
2021/05/30 10:53:41;;;;;;;0.30;0.30;;;;;;;21.93;35.05;98563.92;128108;1104;120505;-80
2021/05/30 10:56:34;;;;;;;0.50;0.50;;;;;;;22.20;34.85;98564.53;127488;1104;115007;-79
2021/05/30 10:59:03;;;;;;;0.30;0.30;;;;;;;22.51;34.81;98561.20;127402;1104;115504;-81
2021/05/30 11:01:41;;;;;;;0.40;0.40;;;;;;;22.36;32.61;98566.98;127318;1104;115231;-80
2021/05/30 11:07:30;;;;;;;0.25;0.25;;;;;;;21.92;34.11;98571.36;127481;1104;115043;-80
2021/05/30 11:10:02;;;;;;;0.40;0.40;;;;;;;21.69;34.58;98559.81;127470;1104;115127;-84
2021/05/30 11:12:48;;;;;;;0.30;0.30;;;;;;;21.54;34.94;98567.14;127598;1104;115786;-81
2021/05/30 11:15:22;;;;;;;0.30;0.30;;;;;;;21.41;35.13;98571.30;127961;1099;115746;-81
2021/05/30 11:17:53;;;;;;;0.40;0.40;;;;;;;21.20;34.31;98569.89;127678;1104;115478;-79
2021/05/30 11:20:23;;;;;;;0.50;0.50;;;;;;;21.01;34.52;98570.06;128579;1098;22785;-80
2021/05/30 11:23:11;;;;;;;0.40;0.40;;;;;;;20.84;34.93;98572.23;127642;1104;115194;-81
2021/05/30 11:25:56;;;;;;;0.25;0.25;;;;;;;20.83;35.44;98573.39;127470;1104;115557;-80
2021/05/30 11:28:28;;;;;;;0.38;0.38;;;;;;;20.82;35.83;98576.48;127672;1104;115210;-80
2021/05/30 11:31:07;;;;;;;0.38;0.38;;;;;;;21.08;35.51;98570.16;127558;1104;115363;-80
2021/05/30 11:33:42;;;;;;;0.30;0.30;;;;;;;21.00;35.53;98577.50;127449;1104;115258;-80
2021/05/30 11:36:33;;;;;;;0.30;0.30;;;;;;;20.88;35.95;98580.48;127530;1104;115035;-80